Puyallup, Washington
Current Conditions -  °F | °C
As of 10:08 PM on Wednesday 22 Oct 2014 (Local Time) from KTCM Reporting Station
Broken Clouds Broken Clouds  
Wind Chill: 57°   Ceiling: 10000
Heat Index: 57°   Visibility: 10mi
Dew Point: 52°   Wind: 14mph
Humidity: 82%   Direction: 200°SSW
Pressure: 29.67"   Gusts: NA
Location:  47.19°N, 122.29°W
Report Text: KTCM 230508Z AUTO 20012KT 10SM SCT075 BKN100 14/11 A2967 RMK AO2
Loading
Personal Weather Stations






























Interactive Weather Map
Tropical Storm Tracking
New forecast layout! Learn more

10-Day Weather Forecast

Advertisements
Track Severe Weather on mobile